sensor_id;sensor_type;location;lat;lon;timestamp;temperature;humidity
64918;HTU21D;52176;44.858;38.372;2023-03-25T00:01:41;5.43;83.36
64918;HTU21D;52176;44.858;38.372;2023-03-25T00:04:07;5.46;83.38
64918;HTU21D;52176;44.858;38.372;2023-03-25T00:06:34;5.45;83.41
64918;HTU21D;52176;44.858;38.372;2023-03-25T00:09:00;5.43;83.49
64918;HTU21D;52176;44.858;38.372;2023-03-25T00:11:28;5.40;83.55
64918;HTU21D;52176;44.858;38.372;2023-03-25T00:13:54;5.40;83.62
64918;HTU21D;52176;44.858;38.372;2023-03-25T00:16:20;5.39;83.74
64918;HTU21D;52176;44.858;38.372;2023-03-25T00:18:46;5.45;83.76
64918;HTU21D;52176;44.858;38.372;2023-03-25T00:21:13;5.50;83.78
64918;HTU21D;52176;44.858;38.372;2023-03-25T00:23:40;5.53;83.78
64918;HTU21D;52176;44.858;38.372;2023-03-25T00:26:07;5.55;83.75
64918;HTU21D;52176;44.858;38.372;2023-03-25T00:28:35;5.55;83.81
64918;HTU21D;52176;44.858;38.372;2023-03-25T00:31:07;5.55;83.88
64918;HTU21D;52176;44.858;38.372;2023-03-25T00:33:35;5.55;83.82
64918;HTU21D;52176;44.858;38.372;2023-03-25T00:36:02;5.49;83.90
64918;HTU21D;52176;44.858;38.372;2023-03-25T00:38:32;5.47;83.99
64918;HTU21D;52176;44.858;38.372;2023-03-25T00:41:24;5.41;84.03
64918;HTU21D;52176;44.858;38.372;2023-03-25T00:43:51;5.36;84.07
64918;HTU21D;52176;44.858;38.372;2023-03-25T00:46:19;5.33;84.23
64918;HTU21D;52176;44.858;38.372;2023-03-25T00:48:45;5.35;84.30
64918;HTU21D;52176;44.858;38.372;2023-03-25T00:51:11;5.35;84.26
64918;HTU21D;52176;44.858;38.372;2023-03-25T00:53:39;5.34;84.18
64918;HTU21D;52176;44.858;38.372;2023-03-25T00:56:06;5.31;84.22
64918;HTU21D;52176;44.858;38.372;2023-03-25T00:58:32;5.28;84.27
64918;HTU21D;52176;44.858;38.372;2023-03-25T01:00:58;5.27;84.27
64918;HTU21D;52176;44.858;38.372;2023-03-25T01:03:25;5.21;84.35
64918;HTU21D;52176;44.858;38.372;2023-03-25T01:05:53;5.16;84.38
64918;HTU21D;52176;44.858;38.372;2023-03-25T01:08:21;5.10;84.38
64918;HTU21D;52176;44.858;38.372;2023-03-25T01:10:51;5.05;84.42
64918;HTU21D;52176;44.858;38.372;2023-03-25T01:13:19;5.02;84.48
64918;HTU21D;52176;44.858;38.372;2023-03-25T01:15:45;5.00;84.52
64918;HTU21D;52176;44.858;38.372;2023-03-25T01:18:11;4.98;84.57
64918;HTU21D;52176;44.858;38.372;2023-03-25T01:20:38;4.98;84.59
64918;HTU21D;52176;44.858;38.372;2023-03-25T01:23:04;5.00;84.58
64918;HTU21D;52176;44.858;38.372;2023-03-25T01:25:30;5.00;84.58
64918;HTU21D;52176;44.858;38.372;2023-03-25T01:27:57;4.95;84.57
64918;HTU21D;52176;44.858;38.372;2023-03-25T01:30:23;4.92;84.57
64918;HTU21D;52176;44.858;38.372;2023-03-25T01:32:49;4.90;84.61
64918;HTU21D;52176;44.858;38.372;2023-03-25T01:35:15;4.88;84.68
64918;HTU21D;52176;44.858;38.372;2023-03-25T01:37:41;4.89;84.71
64918;HTU21D;52176;44.858;38.372;2023-03-25T01:40:16;4.90;84.81
64918;HTU21D;52176;44.858;38.372;2023-03-25T01:42:43;4.93;84.77
64918;HTU21D;52176;44.858;38.372;2023-03-25T01:47:40;5.02;84.77
64918;HTU21D;52176;44.858;38.372;2023-03-25T01:50:08;5.04;84.72
64918;HTU21D;52176;44.858;38.372;2023-03-25T01:52:43;5.07;84.69
64918;HTU21D;52176;44.858;38.372;2023-03-25T01:55:10;5.05;84.64
64918;HTU21D;52176;44.858;38.372;2023-03-25T01:57:39;5.02;84.68
64918;HTU21D;52176;44.858;38.372;2023-03-25T02:00:09;4.95;84.69
64918;HTU21D;52176;44.858;38.372;2023-03-25T02:02:38;4.88;84.78
64918;HTU21D;52176;44.858;38.372;2023-03-25T02:05:20;4.81;84.90
64918;HTU21D;52176;44.858;38.372;2023-03-25T02:07:48;4.75;84.91
64918;HTU21D;52176;44.858;38.372;2023-03-25T02:10:14;4.71;84.97
64918;HTU21D;52176;44.858;38.372;2023-03-25T02:12:41;4.67;85.05
64918;HTU21D;52176;44.858;38.372;2023-03-25T02:15:10;4.63;85.07
64918;HTU21D;52176;44.858;38.372;2023-03-25T02:29:05;4.62;84.90
64918;HTU21D;52176;44.858;38.372;2023-03-25T02:31:44;4.63;84.88
64918;HTU21D;52176;44.858;38.372;2023-03-25T02:39:35;4.59;84.84
64918;HTU21D;52176;44.858;38.372;2023-03-25T02:42:16;4.54;84.85
64918;HTU21D;52176;44.858;38.372;2023-03-25T02:44:57;4.51;84.90
64918;HTU21D;52176;44.858;38.372;2023-03-25T02:47:30;4.50;84.93
64918;HTU21D;52176;44.858;38.372;2023-03-25T02:50:00;4.48;84.97
64918;HTU21D;52176;44.858;38.372;2023-03-25T02:52:36;4.46;84.92
64918;HTU21D;52176;44.858;38.372;2023-03-25T02:55:07;4.45;84.90
64918;HTU21D;52176;44.858;38.372;2023-03-25T02:57:39;4.43;84.98
64918;HTU21D;52176;44.858;38.372;2023-03-25T03:00:07;4.44;84.95
64918;HTU21D;52176;44.858;38.372;2023-03-25T03:03:09;4.43;84.91
64918;HTU21D;52176;44.858;38.372;2023-03-25T03:05:45;4.45;84.99
64918;HTU21D;52176;44.858;38.372;2023-03-25T03:11:20;4.53;84.87
64918;HTU21D;52176;44.858;38.372;2023-03-25T03:22:29;4.87;84.58
64918;HTU21D;52176;44.858;38.372;2023-03-25T03:25:05;4.94;84.52
64918;HTU21D;52176;44.858;38.372;2023-03-25T03:30:19;5.06;84.47
64918;HTU21D;52176;44.858;38.372;2023-03-25T03:35:29;5.20;84.42
64918;HTU21D;52176;44.858;38.372;2023-03-25T03:37:59;5.30;84.37
64918;HTU21D;52176;44.858;38.372;2023-03-25T03:40:28;5.37;84.34
64918;HTU21D;52176;44.858;38.372;2023-03-25T03:43:03;5.45;84.31
64918;HTU21D;52176;44.858;38.372;2023-03-25T03:45:38;5.52;84.32
64918;HTU21D;52176;44.858;38.372;2023-03-25T03:48:13;5.63;84.30
64918;HTU21D;52176;44.858;38.372;2023-03-25T03:50:52;5.69;84.27
64918;HTU21D;52176;44.858;38.372;2023-03-25T03:53:33;5.77;84.24
64918;HTU21D;52176;44.858;38.372;2023-03-25T03:56:07;5.84;84.21
64918;HTU21D;52176;44.858;38.372;2023-03-25T03:58:38;5.93;84.20
64918;HTU21D;52176;44.858;38.372;2023-03-25T04:01:15;6.00;84.24
64918;HTU21D;52176;44.858;38.372;2023-03-25T04:03:52;6.08;84.26
64918;HTU21D;52176;44.858;38.372;2023-03-25T04:12:16;6.29;84.23
64918;HTU21D;52176;44.858;38.372;2023-03-25T04:14:43;6.34;84.24
64918;HTU21D;52176;44.858;38.372;2023-03-25T04:17:10;6.36;84.32
64918;HTU21D;52176;44.858;38.372;2023-03-25T04:19:36;6.40;84.40
64918;HTU21D;52176;44.858;38.372;2023-03-25T04:22:03;6.43;84.52
64918;HTU21D;52176;44.858;38.372;2023-03-25T04:24:30;6.48;84.55
64918;HTU21D;52176;44.858;38.372;2023-03-25T04:27:00;6.50;84.61
64918;HTU21D;52176;44.858;38.372;2023-03-25T04:29:32;6.53;84.70
64918;HTU21D;52176;44.858;38.372;2023-03-25T04:31:59;6.55;84.74
64918;HTU21D;52176;44.858;38.372;2023-03-25T04:34:26;6.58;84.84
64918;HTU21D;52176;44.858;38.372;2023-03-25T04:36:53;6.61;84.84
64918;HTU21D;52176;44.858;38.372;2023-03-25T04:39:19;6.70;84.81
64918;HTU21D;52176;44.858;38.372;2023-03-25T04:41:51;6.79;84.80
64918;HTU21D;52176;44.858;38.372;2023-03-25T04:44:28;6.94;84.64
64918;HTU21D;52176;44.858;38.372;2023-03-25T04:46:59;7.05;84.56
64918;HTU21D;52176;44.858;38.372;2023-03-25T04:49:26;7.17;84.49
64918;HTU21D;52176;44.858;38.372;2023-03-25T04:51:53;7.29;84.45
64918;HTU21D;52176;44.858;38.372;2023-03-25T04:54:20;7.40;84.42
64918;HTU21D;52176;44.858;38.372;2023-03-25T04:56:49;7.50;84.35
64918;HTU21D;52176;44.858;38.372;2023-03-25T04:59:19;7.60;84.40
64918;HTU21D;52176;44.858;38.372;2023-03-25T05:01:48;7.72;88.27
64918;HTU21D;52176;44.858;38.372;2023-03-25T05:04:15;7.92;87.07
64918;HTU21D;52176;44.858;38.372;2023-03-25T05:06:45;8.02;86.33
64918;HTU21D;52176;44.858;38.372;2023-03-25T05:09:17;8.11;85.96
64918;HTU21D;52176;44.858;38.372;2023-03-25T05:11:54;8.20;85.65
64918;HTU21D;52176;44.858;38.372;2023-03-25T05:14:20;8.30;85.48
64918;HTU21D;52176;44.858;38.372;2023-03-25T05:16:47;8.38;85.35
64918;HTU21D;52176;44.858;38.372;2023-03-25T05:19:14;8.50;85.26
64918;HTU21D;52176;44.858;38.372;2023-03-25T05:21:41;8.65;85.09
64918;HTU21D;52176;44.858;38.372;2023-03-25T05:24:08;8.78;84.92
64918;HTU21D;52176;44.858;38.372;2023-03-25T05:26:36;8.90;84.83
64918;HTU21D;52176;44.858;38.372;2023-03-25T05:29:04;9.02;84.71
64918;HTU21D;52176;44.858;38.372;2023-03-25T05:31:30;9.11;84.62
64918;HTU21D;52176;44.858;38.372;2023-03-25T05:33:56;9.22;84.55
64918;HTU21D;52176;44.858;38.372;2023-03-25T05:36:22;9.32;84.45
64918;HTU21D;52176;44.858;38.372;2023-03-25T05:38:49;9.46;87.08
64918;HTU21D;52176;44.858;38.372;2023-03-25T05:41:16;9.72;87.86
64918;HTU21D;52176;44.858;38.372;2023-03-25T05:43:42;10.04;87.50
64918;HTU21D;52176;44.858;38.372;2023-03-25T05:46:12;10.36;86.80
64918;HTU21D;52176;44.858;38.372;2023-03-25T05:48:38;10.69;85.84
64918;HTU21D;52176;44.858;38.372;2023-03-25T05:51:09;10.97;84.27
64918;HTU21D;52176;44.858;38.372;2023-03-25T05:53:38;11.23;83.06
64918;HTU21D;52176;44.858;38.372;2023-03-25T05:56:04;11.57;82.35
64918;HTU21D;52176;44.858;38.372;2023-03-25T05:58:31;11.58;81.27
64918;HTU21D;52176;44.858;38.372;2023-03-25T06:00:57;11.85;80.84
64918;HTU21D;52176;44.858;38.372;2023-03-25T06:03:27;11.97;80.59
64918;HTU21D;52176;44.858;38.372;2023-03-25T06:05:53;12.05;80.40
64918;HTU21D;52176;44.858;38.372;2023-03-25T06:08:19;12.11;80.25
64918;HTU21D;52176;44.858;38.372;2023-03-25T06:10:57;12.14;80.24
64918;HTU21D;52176;44.858;38.372;2023-03-25T06:13:27;12.16;80.19
64918;HTU21D;52176;44.858;38.372;2023-03-25T06:15:53;12.18;80.10
64918;HTU21D;52176;44.858;38.372;2023-03-25T06:18:22;12.14;80.09
64918;HTU21D;52176;44.858;38.372;2023-03-25T06:20:52;12.17;80.11
64918;HTU21D;52176;44.858;38.372;2023-03-25T06:23:23;12.22;80.07
64918;HTU21D;52176;44.858;38.372;2023-03-25T06:25:51;12.32;79.97
64918;HTU21D;52176;44.858;38.372;2023-03-25T06:28:18;12.38;79.84
64918;HTU21D;52176;44.858;38.372;2023-03-25T06:30:45;12.41;79.76
64918;HTU21D;52176;44.858;38.372;2023-03-25T06:33:11;12.42;79.75
64918;HTU21D;52176;44.858;38.372;2023-03-25T06:35:40;12.40;79.75
64918;HTU21D;52176;44.858;38.372;2023-03-25T06:38:08;12.38;79.76
64918;HTU21D;52176;44.858;38.372;2023-03-25T06:40:57;12.37;79.75
64918;HTU21D;52176;44.858;38.372;2023-03-25T06:43:23;12.28;79.79
64918;HTU21D;52176;44.858;38.372;2023-03-25T06:46:10;12.22;79.90
64918;HTU21D;52176;44.858;38.372;2023-03-25T06:49:08;12.17;79.87
64918;HTU21D;52176;44.858;38.372;2023-03-25T06:51:34;12.12;79.82
64918;HTU21D;52176;44.858;38.372;2023-03-25T06:54:00;12.08;79.90
64918;HTU21D;52176;44.858;38.372;2023-03-25T06:56:26;12.08;79.98
64918;HTU21D;52176;44.858;38.372;2023-03-25T06:58:52;12.12;79.92
64918;HTU21D;52176;44.858;38.372;2023-03-25T07:01:18;12.14;79.78
64918;HTU21D;52176;44.858;38.372;2023-03-25T07:03:44;12.18;79.62
64918;HTU21D;52176;44.858;38.372;2023-03-25T07:06:15;12.25;79.41
64918;HTU21D;52176;44.858;38.372;2023-03-25T07:08:42;12.30;79.22
64918;HTU21D;52176;44.858;38.372;2023-03-25T07:11:09;12.40;79.07
64918;HTU21D;52176;44.858;38.372;2023-03-25T07:13:36;12.50;78.75
64918;HTU21D;52176;44.858;38.372;2023-03-25T07:16:02;12.53;78.41
64918;HTU21D;52176;44.858;38.372;2023-03-25T07:18:29;12.53;78.14
64918;HTU21D;52176;44.858;38.372;2023-03-25T07:20:55;12.52;77.84
64918;HTU21D;52176;44.858;38.372;2023-03-25T07:23:21;12.59;77.81
64918;HTU21D;52176;44.858;38.372;2023-03-25T07:25:47;12.73;77.72
64918;HTU21D;52176;44.858;38.372;2023-03-25T07:28:13;12.93;77.47
64918;HTU21D;52176;44.858;38.372;2023-03-25T07:30:44;13.07;77.08
64918;HTU21D;52176;44.858;38.372;2023-03-25T07:33:10;13.21;76.73
64918;HTU21D;52176;44.858;38.372;2023-03-25T07:35:36;13.32;76.44
64918;HTU21D;52176;44.858;38.372;2023-03-25T07:38:02;13.47;76.24
64918;HTU21D;52176;44.858;38.372;2023-03-25T07:40:29;13.61;75.93
64918;HTU21D;52176;44.858;38.372;2023-03-25T07:42:55;13.77;75.61
64918;HTU21D;52176;44.858;38.372;2023-03-25T07:45:40;13.89;75.18
64918;HTU21D;52176;44.858;38.372;2023-03-25T07:48:07;13.91;74.94
64918;HTU21D;52176;44.858;38.372;2023-03-25T07:50:38;14.00;74.91
64918;HTU21D;52176;44.858;38.372;2023-03-25T07:53:05;14.13;74.67
64918;HTU21D;52176;44.858;38.372;2023-03-25T07:55:31;14.33;74.39
64918;HTU21D;52176;44.858;38.372;2023-03-25T07:57:58;14.50;73.91
64918;HTU21D;52176;44.858;38.372;2023-03-25T08:00:29;14.71;73.55
64918;HTU21D;52176;44.858;38.372;2023-03-25T08:02:55;14.96;73.10
64918;HTU21D;52176;44.858;38.372;2023-03-25T08:05:21;15.12;72.43
64918;HTU21D;52176;44.858;38.372;2023-03-25T08:07:49;15.33;72.35
64918;HTU21D;52176;44.858;38.372;2023-03-25T08:10:15;15.75;72.00
64918;HTU21D;52176;44.858;38.372;2023-03-25T08:12:43;16.24;71.41
64918;HTU21D;52176;44.858;38.372;2023-03-25T08:15:09;16.72;70.29
64918;HTU21D;52176;44.858;38.372;2023-03-25T08:17:39;16.96;69.26
64918;HTU21D;52176;44.858;38.372;2023-03-25T08:20:06;17.15;68.94
64918;HTU21D;52176;44.858;38.372;2023-03-25T08:22:32;17.39;67.84
64918;HTU21D;52176;44.858;38.372;2023-03-25T08:24:58;17.35;68.39
64918;HTU21D;52176;44.858;38.372;2023-03-25T08:27:24;16.91;63.18
64918;HTU21D;52176;44.858;38.372;2023-03-25T08:29:50;17.16;64.88
64918;HTU21D;52176;44.858;38.372;2023-03-25T08:32:20;17.21;62.45
64918;HTU21D;52176;44.858;38.372;2023-03-25T08:34:46;17.80;61.18
64918;HTU21D;52176;44.858;38.372;2023-03-25T08:37:12;18.51;58.90
64918;HTU21D;52176;44.858;38.372;2023-03-25T08:39:40;19.35;57.07
64918;HTU21D;52176;44.858;38.372;2023-03-25T08:42:07;20.26;54.86
64918;HTU21D;52176;44.858;38.372;2023-03-25T08:44:33;21.30;55.20
64918;HTU21D;52176;44.858;38.372;2023-03-25T08:46:59;21.18;51.81
64918;HTU21D;52176;44.858;38.372;2023-03-25T08:49:25;21.39;50.50
64918;HTU21D;52176;44.858;38.372;2023-03-25T08:51:51;22.36;51.75
64918;HTU21D;52176;44.858;38.372;2023-03-25T08:54:17;23.10;51.80
64918;HTU21D;52176;44.858;38.372;2023-03-25T08:56:43;23.07;47.92
64918;HTU21D;52176;44.858;38.372;2023-03-25T08:59:09;23.41;46.22
64918;HTU21D;52176;44.858;38.372;2023-03-25T09:01:37;24.26;47.61
64918;HTU21D;52176;44.858;38.372;2023-03-25T09:04:03;24.79;47.66
64918;HTU21D;52176;44.858;38.372;2023-03-25T09:06:28;25.39;48.50
64918;HTU21D;52176;44.858;38.372;2023-03-25T09:08:54;25.66;48.24
64918;HTU21D;52176;44.858;38.372;2023-03-25T09:11:20;25.35;43.74
64918;HTU21D;52176;44.858;38.372;2023-03-25T09:13:46;25.58;41.93
64918;HTU21D;52176;44.858;38.372;2023-03-25T09:16:12;25.78;41.40
64918;HTU21D;52176;44.858;38.372;2023-03-25T09:18:37;26.61;43.42
64918;HTU21D;52176;44.858;38.372;2023-03-25T09:21:03;26.82;43.64
64918;HTU21D;52176;44.858;38.372;2023-03-25T09:23:29;26.41;40.52
64918;HTU21D;52176;44.858;38.372;2023-03-25T09:25:58;26.68;40.13
64918;HTU21D;52176;44.858;38.372;2023-03-25T09:28:24;26.91;39.29
64918;HTU21D;52176;44.858;38.372;2023-03-25T09:30:50;27.05;38.64
64918;HTU21D;52176;44.858;38.372;2023-03-25T09:33:16;27.61;39.88
64918;HTU21D;52176;44.858;38.372;2023-03-25T09:35:43;27.37;38.62
64918;HTU21D;52176;44.858;38.372;2023-03-25T09:38:09;27.82;39.25
64918;HTU21D;52176;44.858;38.372;2023-03-25T09:40:35;27.87;39.90
64918;HTU21D;52176;44.858;38.372;2023-03-25T09:45:46;27.86;40.39
64918;HTU21D;52176;44.858;38.372;2023-03-25T09:48:23;27.83;40.15
64918;HTU21D;52176;44.858;38.372;2023-03-25T09:50:50;27.88;40.29
64918;HTU21D;52176;44.858;38.372;2023-03-25T09:53:34;27.76;40.49
64918;HTU21D;52176;44.858;38.372;2023-03-25T09:56:04;27.65;40.62
64918;HTU21D;52176;44.858;38.372;2023-03-25T09:58:41;27.51;40.54
64918;HTU21D;52176;44.858;38.372;2023-03-25T10:06:40;27.63;40.77
64918;HTU21D;52176;44.858;38.372;2023-03-25T10:17:47;27.58;41.00
64918;HTU21D;52176;44.858;38.372;2023-03-25T10:23:21;28.02;40.41
64918;HTU21D;52176;44.858;38.372;2023-03-25T10:25:55;28.13;40.10
64918;HTU21D;52176;44.858;38.372;2023-03-25T10:28:31;28.04;40.01
64918;HTU21D;52176;44.858;38.372;2023-03-25T10:30:58;27.99;40.27
64918;HTU21D;52176;44.858;38.372;2023-03-25T10:33:37;28.05;40.04
64918;HTU21D;52176;44.858;38.372;2023-03-25T10:36:07;28.20;40.03
64918;HTU21D;52176;44.858;38.372;2023-03-25T10:38:37;28.42;39.60
64918;HTU21D;52176;44.858;38.372;2023-03-25T10:43:45;28.00;39.74
64918;HTU21D;52176;44.858;38.372;2023-03-25T10:46:33;27.75;39.67
64918;HTU21D;52176;44.858;38.372;2023-03-25T10:49:02;27.61;40.17
64918;HTU21D;52176;44.858;38.372;2023-03-25T10:51:31;27.66;39.98
64918;HTU21D;52176;44.858;38.372;2023-03-25T10:53:58;27.78;39.78
64918;HTU21D;52176;44.858;38.372;2023-03-25T10:56:38;27.46;39.89
64918;HTU21D;52176;44.858;38.372;2023-03-25T10:59:32;27.13;40.46
64918;HTU21D;52176;44.858;38.372;2023-03-25T11:02:02;27.17;41.73
64918;HTU21D;52176;44.858;38.372;2023-03-25T11:04:36;26.98;41.58
64918;HTU21D;52176;44.858;38.372;2023-03-25T11:12:33;27.23;41.05
64918;HTU21D;52176;44.858;38.372;2023-03-25T11:14:59;27.42;40.94
64918;HTU21D;52176;44.858;38.372;2023-03-25T11:17:27;27.06;40.75
64918;HTU21D;52176;44.858;38.372;2023-03-25T11:19:59;26.27;41.49
64918;HTU21D;52176;44.858;38.372;2023-03-25T11:22:29;25.39;42.80
64918;HTU21D;52176;44.858;38.372;2023-03-25T11:25:02;24.50;44.02
64918;HTU21D;52176;44.858;38.372;2023-03-25T11:27:29;23.92;45.12
64918;HTU21D;52176;44.858;38.372;2023-03-25T11:29:59;23.73;45.87
64918;HTU21D;52176;44.858;38.372;2023-03-25T11:32:36;23.80;45.79
64918;HTU21D;52176;44.858;38.372;2023-03-25T11:35:26;24.08;45.57
64918;HTU21D;52176;44.858;38.372;2023-03-25T11:37:58;24.18;45.53
64918;HTU21D;52176;44.858;38.372;2023-03-25T11:40:26;23.97;46.05
64918;HTU21D;52176;44.858;38.372;2023-03-25T11:42:55;23.44;46.63
64918;HTU21D;52176;44.858;38.372;2023-03-25T11:45:35;22.85;47.74
64918;HTU21D;52176;44.858;38.372;2023-03-25T11:48:17;22.33;48.76
64918;HTU21D;52176;44.858;38.372;2023-03-25T11:51:03;22.02;50.07
64918;HTU21D;52176;44.858;38.372;2023-03-25T11:53:31;22.06;50.22
64918;HTU21D;52176;44.858;38.372;2023-03-25T11:56:04;22.28;50.07
64918;HTU21D;52176;44.858;38.372;2023-03-25T11:58:33;22.18;49.74
64918;HTU21D;52176;44.858;38.372;2023-03-25T12:01:03;21.95;50.19
64918;HTU21D;52176;44.858;38.372;2023-03-25T12:03:32;21.81;50.32
64918;HTU21D;52176;44.858;38.372;2023-03-25T12:06:16;21.79;50.34
64918;HTU21D;52176;44.858;38.372;2023-03-25T12:08:57;21.87;50.13
64918;HTU21D;52176;44.858;38.372;2023-03-25T12:16:49;21.77;50.89
64918;HTU21D;52176;44.858;38.372;2023-03-25T12:24:56;21.30;51.62
64918;HTU21D;52176;44.858;38.372;2023-03-25T12:38:19;20.86;52.76
64918;HTU21D;52176;44.858;38.372;2023-03-25T12:46:13;20.19;54.62
64918;HTU21D;52176;44.858;38.372;2023-03-25T12:53:41;20.42;54.33
64918;HTU21D;52176;44.858;38.372;2023-03-25T13:02:03;20.47;54.07
64918;HTU21D;52176;44.858;38.372;2023-03-25T13:07:08;20.32;54.42
64918;HTU21D;52176;44.858;38.372;2023-03-25T13:14:27;19.95;54.96
64918;HTU21D;52176;44.858;38.372;2023-03-25T13:16:54;19.85;55.17
64918;HTU21D;52176;44.858;38.372;2023-03-25T13:19:22;19.68;55.79
64918;HTU21D;52176;44.858;38.372;2023-03-25T13:22:02;19.67;55.20
64918;HTU21D;52176;44.858;38.372;2023-03-25T13:26:54;19.71;55.82
64918;HTU21D;52176;44.858;38.372;2023-03-25T13:31:48;19.51;56.16
64918;HTU21D;52176;44.858;38.372;2023-03-25T13:37:14;19.50;56.38
64918;HTU21D;52176;44.858;38.372;2023-03-25T13:42:19;19.36;56.44
64918;HTU21D;52176;44.858;38.372;2023-03-25T13:44:47;19.38;56.22
64918;HTU21D;52176;44.858;38.372;2023-03-25T13:47:19;19.21;56.54
64918;HTU21D;52176;44.858;38.372;2023-03-25T13:49:49;18.97;58.04
64918;HTU21D;52176;44.858;38.372;2023-03-25T13:52:17;18.94;57.55
64918;HTU21D;52176;44.858;38.372;2023-03-25T13:54:54;18.74;58.58
64918;HTU21D;52176;44.858;38.372;2023-03-25T14:07:37;18.26;58.90
64918;HTU21D;52176;44.858;38.372;2023-03-25T14:12:52;17.83;61.20
64918;HTU21D;52176;44.858;38.372;2023-03-25T14:15:23;17.84;60.67
64918;HTU21D;52176;44.858;38.372;2023-03-25T14:17:51;17.80;60.58
64918;HTU21D;52176;44.858;38.372;2023-03-25T14:20:22;17.64;60.67
64918;HTU21D;52176;44.858;38.372;2023-03-25T14:22:56;17.46;62.55
64918;HTU21D;52176;44.858;38.372;2023-03-25T14:28:01;17.56;61.79
64918;HTU21D;52176;44.858;38.372;2023-03-25T14:30:28;17.47;61.60
64918;HTU21D;52176;44.858;38.372;2023-03-25T14:32:54;17.29;61.68
64918;HTU21D;52176;44.858;38.372;2023-03-25T14:53:39;16.74;62.85
64918;HTU21D;52176;44.858;38.372;2023-03-25T14:56:06;16.60;65.05
64918;HTU21D;52176;44.858;38.372;2023-03-25T14:58:36;16.63;64.92
64918;HTU21D;52176;44.858;38.372;2023-03-25T15:01:03;16.70;65.07
64918;HTU21D;52176;44.858;38.372;2023-03-25T15:03:33;16.72;64.80
64918;HTU21D;52176;44.858;38.372;2023-03-25T15:06:01;16.74;64.05
64918;HTU21D;52176;44.858;38.372;2023-03-25T15:08:33;16.57;63.96
64918;HTU21D;52176;44.858;38.372;2023-03-25T15:11:11;16.39;65.79
64918;HTU21D;52176;44.858;38.372;2023-03-25T15:13:40;16.39;66.17
64918;HTU21D;52176;44.858;38.372;2023-03-25T15:21:18;16.37;66.53
64918;HTU21D;52176;44.858;38.372;2023-03-25T15:26:30;16.29;66.77
64918;HTU21D;52176;44.858;38.372;2023-03-25T15:36:50;16.03;66.65
64918;HTU21D;52176;44.858;38.372;2023-03-25T15:39:39;15.81;68.13
64918;HTU21D;52176;44.858;38.372;2023-03-25T15:52:47;15.45;68.27
64918;HTU21D;52176;44.858;38.372;2023-03-25T15:55:18;15.26;68.10
64918;HTU21D;52176;44.858;38.372;2023-03-25T15:57:49;15.04;68.23
64918;HTU21D;52176;44.858;38.372;2023-03-25T16:00:19;14.79;71.08
64918;HTU21D;52176;44.858;38.372;2023-03-25T16:05:31;14.62;72.02
64918;HTU21D;52176;44.858;38.372;2023-03-25T16:07:58;14.62;72.14
64918;HTU21D;52176;44.858;38.372;2023-03-25T16:10:29;14.62;72.09
64918;HTU21D;52176;44.858;38.372;2023-03-25T16:13:00;14.59;72.13
64918;HTU21D;52176;44.858;38.372;2023-03-25T16:15:27;14.57;71.13
64918;HTU21D;52176;44.858;38.372;2023-03-25T16:17:54;14.44;70.77
64918;HTU21D;52176;44.858;38.372;2023-03-25T16:20:22;14.29;70.67
64918;HTU21D;52176;44.858;38.372;2023-03-25T16:22:49;14.06;73.48
64918;HTU21D;52176;44.858;38.372;2023-03-25T16:25:18;14.07;72.33
64918;HTU21D;52176;44.858;38.372;2023-03-25T16:27:46;13.93;74.24
64918;HTU21D;52176;44.858;38.372;2023-03-25T16:30:35;13.93;72.92
64918;HTU21D;52176;44.858;38.372;2023-03-25T16:33:10;13.79;72.35
64918;HTU21D;52176;44.858;38.372;2023-03-25T16:35:37;13.61;72.26
64918;HTU21D;52176;44.858;38.372;2023-03-25T16:38:04;13.36;74.97
64918;HTU21D;52176;44.858;38.372;2023-03-25T16:40:32;13.33;73.74
64918;HTU21D;52176;44.858;38.372;2023-03-25T16:43:04;13.16;75.47
64918;HTU21D;52176;44.858;38.372;2023-03-25T16:45:31;13.15;75.73
64918;HTU21D;52176;44.858;38.372;2023-03-25T16:48:00;13.12;76.05
64918;HTU21D;52176;44.858;38.372;2023-03-25T16:50:27;13.11;76.05
64918;HTU21D;52176;44.858;38.372;2023-03-25T16:52:53;13.10;76.66
64918;HTU21D;52176;44.858;38.372;2023-03-25T16:55:26;13.07;76.79
64918;HTU21D;52176;44.858;38.372;2023-03-25T16:57:53;13.06;75.52
64918;HTU21D;52176;44.858;38.372;2023-03-25T17:00:20;12.90;76.91
64918;HTU21D;52176;44.858;38.372;2023-03-25T17:02:46;12.87;76.83
64918;HTU21D;52176;44.858;38.372;2023-03-25T17:05:18;12.82;76.60
64918;HTU21D;52176;44.858;38.372;2023-03-25T17:07:45;12.84;75.40
64918;HTU21D;52176;44.858;38.372;2023-03-25T17:10:23;12.65;75.02
64918;HTU21D;52176;44.858;38.372;2023-03-25T17:12:53;12.46;74.93
64918;HTU21D;52176;44.858;38.372;2023-03-25T17:15:20;12.22;77.68
64918;HTU21D;52176;44.858;38.372;2023-03-25T17:17:47;12.20;76.55
64918;HTU21D;52176;44.858;38.372;2023-03-25T17:20:16;12.05;78.10
64918;HTU21D;52176;44.858;38.372;2023-03-25T17:22:53;12.03;78.44
64918;HTU21D;52176;44.858;38.372;2023-03-25T17:27:52;12.05;79.26
64918;HTU21D;52176;44.858;38.372;2023-03-25T17:30:19;12.05;79.12
64918;HTU21D;52176;44.858;38.372;2023-03-25T17:32:45;12.08;79.93
64918;HTU21D;52176;44.858;38.372;2023-03-25T17:35:16;12.11;79.48
64918;HTU21D;52176;44.858;38.372;2023-03-25T17:37:45;12.12;79.13
64918;HTU21D;52176;44.858;38.372;2023-03-25T17:40:18;12.13;79.81
64918;HTU21D;52176;44.858;38.372;2023-03-25T17:42:45;12.17;78.42
64918;HTU21D;52176;44.858;38.372;2023-03-25T17:45:12;12.05;79.75
64918;HTU21D;52176;44.858;38.372;2023-03-25T17:47:38;12.08;78.54
64918;HTU21D;52176;44.858;38.372;2023-03-25T17:50:14;12.01;78.01
64918;HTU21D;52176;44.858;38.372;2023-03-25T17:52:40;11.87;80.75
64918;HTU21D;52176;44.858;38.372;2023-03-25T17:55:06;11.90;79.37
64918;HTU21D;52176;44.858;38.372;2023-03-25T17:57:32;11.83;81.31
64918;HTU21D;52176;44.858;38.372;2023-03-25T17:59:58;11.88;79.95
64918;HTU21D;52176;44.858;38.372;2023-03-25T18:02:24;11.81;81.89
64918;HTU21D;52176;44.858;38.372;2023-03-25T18:04:50;11.88;80.36
64918;HTU21D;52176;44.858;38.372;2023-03-25T18:07:16;11.81;79.63
64918;HTU21D;52176;44.858;38.372;2023-03-25T18:09:45;11.69;82.42
64918;HTU21D;52176;44.858;38.372;2023-03-25T18:12:12;11.74;83.13
64918;HTU21D;52176;44.858;38.372;2023-03-25T18:14:37;11.85;82.97
64918;HTU21D;52176;44.858;38.372;2023-03-25T18:17:03;11.90;82.78
64918;HTU21D;52176;44.858;38.372;2023-03-25T18:19:29;11.98;82.49
64918;HTU21D;52176;44.858;38.372;2023-03-25T18:21:59;11.99;82.12
64918;HTU21D;52176;44.858;38.372;2023-03-25T18:24:25;12.00;81.80
64918;HTU21D;52176;44.858;38.372;2023-03-25T18:26:51;12.02;81.54
64918;HTU21D;52176;44.858;38.372;2023-03-25T18:29:24;12.02;80.47
64918;HTU21D;52176;44.858;38.372;2023-03-25T18:31:50;11.82;81.50
64918;HTU21D;52176;44.858;38.372;2023-03-25T18:34:16;11.81;80.45